sensor_id;sensor_type;location;lat;lon;timestamp;P1;durP1;ratioP1;P2;durP2;ratioP2
22786;SDS011;63134;52.020;4.714;2022-11-15T00:02:33;153.80;;;55.70;;
22786;SDS011;63134;52.020;4.714;2022-11-15T00:05:38;175.57;;;57.88;;
22786;SDS011;63134;52.020;4.714;2022-11-15T00:08:42;172.90;;;58.95;;
22786;SDS011;63134;52.020;4.714;2022-11-15T00:11:46;184.18;;;59.35;;
22786;SDS011;63134;52.020;4.714;2022-11-15T00:14:53;194.82;;;59.58;;
22786;SDS011;63134;52.020;4.714;2022-11-15T00:17:58;193.27;;;58.97;;
22786;SDS011;63134;52.020;4.714;2022-11-15T00:21:04;206.80;;;61.33;;
22786;SDS011;63134;52.020;4.714;2022-11-15T00:24:10;240.13;;;61.55;;
22786;SDS011;63134;52.020;4.714;2022-11-15T00:27:14;227.07;;;62.40;;
22786;SDS011;63134;52.020;4.714;2022-11-15T00:30:18;332.38;;;67.18;;
22786;SDS011;63134;52.020;4.714;2022-11-15T00:33:23;309.10;;;63.08;;
22786;SDS011;63134;52.020;4.714;2022-11-15T00:36:27;275.23;;;64.60;;
22786;SDS011;63134;52.020;4.714;2022-11-15T00:39:31;426.95;;;71.38;;
22786;SDS011;63134;52.020;4.714;2022-11-15T00:42:36;230.32;;;64.22;;
22786;SDS011;63134;52.020;4.714;2022-11-15T00:45:44;276.15;;;65.75;;
22786;SDS011;63134;52.020;4.714;2022-11-15T00:48:49;283.25;;;67.20;;
22786;SDS011;63134;52.020;4.714;2022-11-15T00:51:54;309.25;;;71.07;;
22786;SDS011;63134;52.020;4.714;2022-11-15T00:54:58;281.02;;;68.90;;
22786;SDS011;63134;52.020;4.714;2022-11-15T00:58:03;356.63;;;70.07;;
22786;SDS011;63134;52.020;4.714;2022-11-15T01:01:08;310.77;;;68.47;;
22786;SDS011;63134;52.020;4.714;2022-11-15T01:04:14;355.70;;;72.10;;
22786;SDS011;63134;52.020;4.714;2022-11-15T01:07:19;505.67;;;77.20;;
22786;SDS011;63134;52.020;4.714;2022-11-15T01:10:23;379.65;;;77.75;;
22786;SDS011;63134;52.020;4.714;2022-11-15T01:13:30;428.45;;;75.97;;
22786;SDS011;63134;52.020;4.714;2022-11-15T01:16:36;310.73;;;74.30;;
22786;SDS011;63134;52.020;4.714;2022-11-15T01:19:40;360.45;;;73.63;;
22786;SDS011;63134;52.020;4.714;2022-11-15T01:22:45;388.00;;;78.20;;
22786;SDS011;63134;52.020;4.714;2022-11-15T01:25:52;314.42;;;74.80;;
22786;SDS011;63134;52.020;4.714;2022-11-15T01:28:56;403.60;;;79.75;;
22786;SDS011;63134;52.020;4.714;2022-11-15T01:32:00;315.40;;;75.10;;
22786;SDS011;63134;52.020;4.714;2022-11-15T01:35:05;366.10;;;79.30;;
22786;SDS011;63134;52.020;4.714;2022-11-15T01:38:10;332.25;;;78.22;;
22786;SDS011;63134;52.020;4.714;2022-11-15T01:41:15;331.45;;;79.03;;
22786;SDS011;63134;52.020;4.714;2022-11-15T01:47:36;294.05;;;76.78;;
22786;SDS011;63134;52.020;4.714;2022-11-15T01:50:44;302.38;;;75.53;;
22786;SDS011;63134;52.020;4.714;2022-11-15T01:53:49;317.42;;;80.10;;
22786;SDS011;63134;52.020;4.714;2022-11-15T01:57:08;283.17;;;75.15;;
22786;SDS011;63134;52.020;4.714;2022-11-15T02:00:14;286.13;;;75.85;;
22786;SDS011;63134;52.020;4.714;2022-11-15T02:03:21;259.98;;;74.07;;
22786;SDS011;63134;52.020;4.714;2022-11-15T02:06:30;299.40;;;76.55;;
22786;SDS011;63134;52.020;4.714;2022-11-15T02:09:36;278.67;;;75.15;;
22786;SDS011;63134;52.020;4.714;2022-11-15T02:12:44;239.20;;;72.47;;
22786;SDS011;63134;52.020;4.714;2022-11-15T02:15:57;285.63;;;76.13;;
22786;SDS011;63134;52.020;4.714;2022-11-15T02:33:03;283.98;;;72.38;;
22786;SDS011;63134;52.020;4.714;2022-11-15T02:36:54;280.08;;;72.20;;
22786;SDS011;63134;52.020;4.714;2022-11-15T02:43:32;327.42;;;72.70;;
22786;SDS011;63134;52.020;4.714;2022-11-15T02:47:01;307.58;;;72.90;;
22786;SDS011;63134;52.020;4.714;2022-11-15T02:50:20;371.05;;;75.63;;
22786;SDS011;63134;52.020;4.714;2022-11-15T02:53:28;339.77;;;79.10;;
22786;SDS011;63134;52.020;4.714;2022-11-15T02:56:33;335.13;;;76.60;;
22786;SDS011;63134;52.020;4.714;2022-11-15T02:59:42;345.55;;;77.40;;
22786;SDS011;63134;52.020;4.714;2022-11-15T03:03:05;324.25;;;80.13;;
22786;SDS011;63134;52.020;4.714;2022-11-15T03:06:43;279.05;;;74.57;;
22786;SDS011;63134;52.020;4.714;2022-11-15T03:10:05;289.77;;;76.22;;
22786;SDS011;63134;52.020;4.714;2022-11-15T03:20:08;244.65;;;75.72;;
22786;SDS011;63134;52.020;4.714;2022-11-15T03:23:15;225.35;;;71.70;;
22786;SDS011;63134;52.020;4.714;2022-11-15T03:26:24;263.67;;;75.85;;
22786;SDS011;63134;52.020;4.714;2022-11-15T03:29:31;240.85;;;76.32;;
22786;SDS011;63134;52.020;4.714;2022-11-15T03:32:57;229.63;;;74.43;;
22786;SDS011;63134;52.020;4.714;2022-11-15T03:36:03;220.98;;;71.45;;
22786;SDS011;63134;52.020;4.714;2022-11-15T03:39:08;226.95;;;74.97;;
22786;SDS011;63134;52.020;4.714;2022-11-15T03:45:44;216.18;;;73.85;;
22786;SDS011;63134;52.020;4.714;2022-11-15T03:48:54;197.52;;;71.47;;
22786;SDS011;63134;52.020;4.714;2022-11-15T03:52:06;184.60;;;68.93;;
22786;SDS011;63134;52.020;4.714;2022-11-15T03:55:12;169.07;;;64.82;;
22786;SDS011;63134;52.020;4.714;2022-11-15T03:58:19;168.57;;;63.30;;
22786;SDS011;63134;52.020;4.714;2022-11-15T04:01:23;149.55;;;60.65;;
22786;SDS011;63134;52.020;4.714;2022-11-15T04:04:28;159.43;;;60.20;;
22786;SDS011;63134;52.020;4.714;2022-11-15T04:07:32;142.90;;;61.00;;
22786;SDS011;63134;52.020;4.714;2022-11-15T04:10:36;154.82;;;60.05;;
22786;SDS011;63134;52.020;4.714;2022-11-15T04:13:41;145.98;;;61.42;;
22786;SDS011;63134;52.020;4.714;2022-11-15T04:16:45;128.23;;;55.33;;
22786;SDS011;63134;52.020;4.714;2022-11-15T04:19:49;129.45;;;53.78;;
22786;SDS011;63134;52.020;4.714;2022-11-15T04:23:14;136.20;;;58.00;;
22786;SDS011;63134;52.020;4.714;2022-11-15T04:26:42;114.88;;;52.60;;
22786;SDS011;63134;52.020;4.714;2022-11-15T04:29:46;113.03;;;52.03;;
22786;SDS011;63134;52.020;4.714;2022-11-15T04:32:51;101.32;;;48.58;;
22786;SDS011;63134;52.020;4.714;2022-11-15T04:35:55;87.43;;;46.20;;
22786;SDS011;63134;52.020;4.714;2022-11-15T04:39:20;91.28;;;45.47;;
22786;SDS011;63134;52.020;4.714;2022-11-15T04:42:24;85.53;;;42.30;;
22786;SDS011;63134;52.020;4.714;2022-11-15T04:45:28;76.57;;;40.20;;
22786;SDS011;63134;52.020;4.714;2022-11-15T04:48:32;70.65;;;37.97;;
22786;SDS011;63134;52.020;4.714;2022-11-15T04:51:37;66.00;;;38.22;;
22786;SDS011;63134;52.020;4.714;2022-11-15T04:54:41;61.65;;;34.47;;
22786;SDS011;63134;52.020;4.714;2022-11-15T04:57:46;60.50;;;33.75;;
22786;SDS011;63134;52.020;4.714;2022-11-15T05:00:51;49.72;;;31.90;;
22786;SDS011;63134;52.020;4.714;2022-11-15T05:03:55;56.10;;;32.33;;
22786;SDS011;63134;52.020;4.714;2022-11-15T05:07:18;53.17;;;29.13;;
22786;SDS011;63134;52.020;4.714;2022-11-15T05:10:23;51.05;;;28.52;;
22786;SDS011;63134;52.020;4.714;2022-11-15T05:13:27;45.22;;;27.45;;
22786;SDS011;63134;52.020;4.714;2022-11-15T05:16:31;42.78;;;25.65;;
22786;SDS011;63134;52.020;4.714;2022-11-15T05:19:36;48.20;;;25.77;;
22786;SDS011;63134;52.020;4.714;2022-11-15T05:22:40;37.92;;;23.48;;
22786;SDS011;63134;52.020;4.714;2022-11-15T05:25:45;33.63;;;24.13;;
22786;SDS011;63134;52.020;4.714;2022-11-15T05:28:53;43.30;;;22.55;;
22786;SDS011;63134;52.020;4.714;2022-11-15T05:31:58;34.65;;;20.60;;
22786;SDS011;63134;52.020;4.714;2022-11-15T05:35:03;32.97;;;20.75;;
22786;SDS011;63134;52.020;4.714;2022-11-15T05:38:12;36.45;;;21.45;;
22786;SDS011;63134;52.020;4.714;2022-11-15T05:41:17;36.08;;;19.75;;
22786;SDS011;63134;52.020;4.714;2022-11-15T05:44:24;33.53;;;18.25;;
22786;SDS011;63134;52.020;4.714;2022-11-15T05:47:40;43.13;;;16.80;;
22786;SDS011;63134;52.020;4.714;2022-11-15T05:50:45;26.25;;;16.58;;
22786;SDS011;63134;52.020;4.714;2022-11-15T05:54:00;30.95;;;17.05;;
22786;SDS011;63134;52.020;4.714;2022-11-15T05:57:05;29.10;;;16.77;;
22786;SDS011;63134;52.020;4.714;2022-11-15T06:00:10;33.17;;;16.70;;
22786;SDS011;63134;52.020;4.714;2022-11-15T06:03:18;31.98;;;16.23;;
22786;SDS011;63134;52.020;4.714;2022-11-15T06:06:23;26.58;;;15.35;;
22786;SDS011;63134;52.020;4.714;2022-11-15T06:09:27;25.50;;;15.38;;
22786;SDS011;63134;52.020;4.714;2022-11-15T06:12:34;34.15;;;15.63;;
22786;SDS011;63134;52.020;4.714;2022-11-15T06:15:38;31.02;;;15.40;;
22786;SDS011;63134;52.020;4.714;2022-11-15T06:18:43;26.17;;;15.73;;
22786;SDS011;63134;52.020;4.714;2022-11-15T06:21:47;33.73;;;14.87;;
22786;SDS011;63134;52.020;4.714;2022-11-15T06:24:52;35.55;;;16.13;;
22786;SDS011;63134;52.020;4.714;2022-11-15T06:28:05;22.63;;;14.50;;
22786;SDS011;63134;52.020;4.714;2022-11-15T06:31:10;31.25;;;13.95;;
22786;SDS011;63134;52.020;4.714;2022-11-15T06:34:15;32.40;;;13.65;;
22786;SDS011;63134;52.020;4.714;2022-11-15T06:37:20;32.05;;;15.15;;
22786;SDS011;63134;52.020;4.714;2022-11-15T06:40:28;34.00;;;15.75;;
22786;SDS011;63134;52.020;4.714;2022-11-15T06:43:33;28.73;;;14.52;;
22786;SDS011;63134;52.020;4.714;2022-11-15T06:46:39;28.17;;;14.55;;
22786;SDS011;63134;52.020;4.714;2022-11-15T06:49:45;33.55;;;14.38;;
22786;SDS011;63134;52.020;4.714;2022-11-15T06:52:49;37.83;;;13.80;;
22786;SDS011;63134;52.020;4.714;2022-11-15T06:55:57;36.42;;;13.13;;
22786;SDS011;63134;52.020;4.714;2022-11-15T06:59:02;27.45;;;11.80;;
22786;SDS011;63134;52.020;4.714;2022-11-15T07:02:11;26.48;;;12.68;;
22786;SDS011;63134;52.020;4.714;2022-11-15T07:05:16;25.92;;;14.25;;
22786;SDS011;63134;52.020;4.714;2022-11-15T07:08:21;21.83;;;13.13;;
22786;SDS011;63134;52.020;4.714;2022-11-15T07:11:27;25.40;;;11.70;;
22786;SDS011;63134;52.020;4.714;2022-11-15T07:14:32;32.25;;;12.35;;
22786;SDS011;63134;52.020;4.714;2022-11-15T07:17:36;23.13;;;10.90;;
22786;SDS011;63134;52.020;4.714;2022-11-15T07:20:41;23.33;;;9.63;;
22786;SDS011;63134;52.020;4.714;2022-11-15T07:23:51;19.45;;;8.90;;
22786;SDS011;63134;52.020;4.714;2022-11-15T07:26:55;20.13;;;9.80;;
22786;SDS011;63134;52.020;4.714;2022-11-15T07:29:59;21.50;;;10.13;;
22786;SDS011;63134;52.020;4.714;2022-11-15T07:33:05;19.40;;;9.55;;
22786;SDS011;63134;52.020;4.714;2022-11-15T07:36:10;25.88;;;14.00;;
22786;SDS011;63134;52.020;4.714;2022-11-15T07:39:14;26.73;;;15.48;;
22786;SDS011;63134;52.020;4.714;2022-11-15T07:42:24;33.40;;;17.08;;
22786;SDS011;63134;52.020;4.714;2022-11-15T07:45:48;34.22;;;18.67;;
22786;SDS011;63134;52.020;4.714;2022-11-15T07:49:00;31.55;;;19.48;;
22786;SDS011;63134;52.020;4.714;2022-11-15T07:52:04;33.50;;;21.20;;
22786;SDS011;63134;52.020;4.714;2022-11-15T07:55:08;31.15;;;19.08;;
22786;SDS011;63134;52.020;4.714;2022-11-15T07:58:16;31.60;;;19.17;;
22786;SDS011;63134;52.020;4.714;2022-11-15T08:01:24;42.80;;;19.98;;
22786;SDS011;63134;52.020;4.714;2022-11-15T08:04:28;33.22;;;17.67;;
22786;SDS011;63134;52.020;4.714;2022-11-15T08:07:32;36.05;;;20.30;;
22786;SDS011;63134;52.020;4.714;2022-11-15T08:10:36;37.90;;;18.25;;
22786;SDS011;63134;52.020;4.714;2022-11-15T08:13:43;35.10;;;18.33;;
22786;SDS011;63134;52.020;4.714;2022-11-15T08:16:48;28.95;;;17.55;;
22786;SDS011;63134;52.020;4.714;2022-11-15T08:19:52;28.35;;;15.75;;
22786;SDS011;63134;52.020;4.714;2022-11-15T08:22:57;32.47;;;16.88;;
22786;SDS011;63134;52.020;4.714;2022-11-15T08:26:02;33.60;;;16.13;;
22786;SDS011;63134;52.020;4.714;2022-11-15T08:29:08;24.27;;;15.40;;
22786;SDS011;63134;52.020;4.714;2022-11-15T08:32:12;27.95;;;14.20;;
22786;SDS011;63134;52.020;4.714;2022-11-15T08:35:17;22.35;;;13.65;;
22786;SDS011;63134;52.020;4.714;2022-11-15T08:38:22;30.50;;;13.52;;
22786;SDS011;63134;52.020;4.714;2022-11-15T08:41:27;24.00;;;12.57;;
22786;SDS011;63134;52.020;4.714;2022-11-15T08:44:34;24.13;;;11.63;;
22786;SDS011;63134;52.020;4.714;2022-11-15T08:47:38;21.27;;;10.57;;
22786;SDS011;63134;52.020;4.714;2022-11-15T08:50:43;20.70;;;10.75;;
22786;SDS011;63134;52.020;4.714;2022-11-15T08:53:50;20.98;;;10.98;;
22786;SDS011;63134;52.020;4.714;2022-11-15T08:56:55;20.08;;;10.88;;
22786;SDS011;63134;52.020;4.714;2022-11-15T09:00:00;17.83;;;11.32;;
22786;SDS011;63134;52.020;4.714;2022-11-15T09:03:05;18.92;;;11.00;;
22786;SDS011;63134;52.020;4.714;2022-11-15T09:06:10;23.23;;;11.10;;
22786;SDS011;63134;52.020;4.714;2022-11-15T09:09:16;18.58;;;10.35;;
22786;SDS011;63134;52.020;4.714;2022-11-15T09:12:21;19.58;;;9.52;;
22786;SDS011;63134;52.020;4.714;2022-11-15T09:15:25;13.98;;;8.95;;
22786;SDS011;63134;52.020;4.714;2022-11-15T09:18:30;16.83;;;9.07;;
22786;SDS011;63134;52.020;4.714;2022-11-15T09:21:35;17.20;;;8.93;;
22786;SDS011;63134;52.020;4.714;2022-11-15T09:24:39;18.80;;;9.90;;
22786;SDS011;63134;52.020;4.714;2022-11-15T09:27:44;22.63;;;9.77;;
22786;SDS011;63134;52.020;4.714;2022-11-15T09:30:51;24.52;;;10.57;;
22786;SDS011;63134;52.020;4.714;2022-11-15T09:33:58;18.77;;;9.93;;
22786;SDS011;63134;52.020;4.714;2022-11-15T09:37:05;13.25;;;8.38;;
22786;SDS011;63134;52.020;4.714;2022-11-15T09:40:14;13.13;;;8.10;;
22786;SDS011;63134;52.020;4.714;2022-11-15T09:47:09;17.23;;;7.10;;
22786;SDS011;63134;52.020;4.714;2022-11-15T09:56:36;11.88;;;5.13;;
22786;SDS011;63134;52.020;4.714;2022-11-15T09:59:34;15.05;;;5.55;;
22786;SDS011;63134;52.020;4.714;2022-11-15T10:02:35;8.70;;;5.32;;
22786;SDS011;63134;52.020;4.714;2022-11-15T10:05:40;12.57;;;4.70;;
22786;SDS011;63134;52.020;4.714;2022-11-15T10:11:26;8.90;;;4.68;;
22786;SDS011;63134;52.020;4.714;2022-11-15T10:14:22;10.60;;;4.90;;
22786;SDS011;63134;52.020;4.714;2022-11-15T10:20:24;12.48;;;4.60;;
22786;SDS011;63134;52.020;4.714;2022-11-15T10:23:13;10.45;;;4.93;;
22786;SDS011;63134;52.020;4.714;2022-11-15T10:26:04;11.80;;;5.03;;
22786;SDS011;63134;52.020;4.714;2022-11-15T10:28:56;12.68;;;4.13;;
22786;SDS011;63134;52.020;4.714;2022-11-15T10:31:44;14.77;;;4.60;;
22786;SDS011;63134;52.020;4.714;2022-11-15T10:34:34;10.70;;;3.15;;
22786;SDS011;63134;52.020;4.714;2022-11-15T10:37:27;9.65;;;4.03;;
22786;SDS011;63134;52.020;4.714;2022-11-15T10:40:21;8.52;;;3.72;;
22786;SDS011;63134;52.020;4.714;2022-11-15T10:46:16;9.40;;;3.58;;
22786;SDS011;63134;52.020;4.714;2022-11-15T10:49:26;15.48;;;3.55;;
22786;SDS011;63134;52.020;4.714;2022-11-15T10:52:16;9.80;;;3.85;;
22786;SDS011;63134;52.020;4.714;2022-11-15T10:58:04;7.75;;;3.17;;
22786;SDS011;63134;52.020;4.714;2022-11-15T11:01:08;11.32;;;3.00;;
22786;SDS011;63134;52.020;4.714;2022-11-15T11:06:49;6.37;;;2.80;;
22786;SDS011;63134;52.020;4.714;2022-11-15T11:09:42;14.23;;;3.13;;
22786;SDS011;63134;52.020;4.714;2022-11-15T11:12:32;14.38;;;3.53;;
22786;SDS011;63134;52.020;4.714;2022-11-15T11:15:18;7.88;;;2.70;;
22786;SDS011;63134;52.020;4.714;2022-11-15T11:18:10;9.43;;;2.58;;
22786;SDS011;63134;52.020;4.714;2022-11-15T11:21:10;8.40;;;2.45;;
22786;SDS011;63134;52.020;4.714;2022-11-15T11:24:03;12.68;;;2.72;;
22786;SDS011;63134;52.020;4.714;2022-11-15T11:27:07;8.27;;;2.38;;
22786;SDS011;63134;52.020;4.714;2022-11-15T11:30:06;8.65;;;2.83;;
22786;SDS011;63134;52.020;4.714;2022-11-15T11:33:09;7.53;;;2.60;;
22786;SDS011;63134;52.020;4.714;2022-11-15T11:35:59;7.20;;;2.35;;
22786;SDS011;63134;52.020;4.714;2022-11-15T11:38:57;8.23;;;2.83;;
22786;SDS011;63134;52.020;4.714;2022-11-15T11:45:37;7.90;;;1.85;;
22786;SDS011;63134;52.020;4.714;2022-11-15T11:48:45;8.20;;;2.85;;
22786;SDS011;63134;52.020;4.714;2022-11-15T11:51:41;9.60;;;2.33;;
22786;SDS011;63134;52.020;4.714;2022-11-15T11:54:36;6.88;;;2.30;;
22786;SDS011;63134;52.020;4.714;2022-11-15T12:00:20;6.55;;;1.85;;
22786;SDS011;63134;52.020;4.714;2022-11-15T12:03:14;8.88;;;1.90;;
22786;SDS011;63134;52.020;4.714;2022-11-15T12:06:06;7.38;;;1.85;;
22786;SDS011;63134;52.020;4.714;2022-11-15T12:09:30;6.95;;;1.63;;
22786;SDS011;63134;52.020;4.714;2022-11-15T12:15:27;18.23;;;2.15;;
22786;SDS011;63134;52.020;4.714;2022-11-15T12:18:16;8.73;;;1.70;;
22786;SDS011;63134;52.020;4.714;2022-11-15T12:21:04;7.30;;;2.00;;
22786;SDS011;63134;52.020;4.714;2022-11-15T12:23:59;6.50;;;1.55;;
22786;SDS011;63134;52.020;4.714;2022-11-15T12:26:53;7.65;;;1.80;;
22786;SDS011;63134;52.020;4.714;2022-11-15T12:29:49;10.38;;;2.30;;
22786;SDS011;63134;52.020;4.714;2022-11-15T12:32:39;11.65;;;2.15;;
22786;SDS011;63134;52.020;4.714;2022-11-15T12:38:49;6.35;;;1.63;;
22786;SDS011;63134;52.020;4.714;2022-11-15T12:47:38;8.57;;;1.80;;
22786;SDS011;63134;52.020;4.714;2022-11-15T12:53:38;7.03;;;1.67;;
22786;SDS011;63134;52.020;4.714;2022-11-15T12:56:23;10.68;;;2.05;;
22786;SDS011;63134;52.020;4.714;2022-11-15T12:59:09;9.35;;;2.03;;
22786;SDS011;63134;52.020;4.714;2022-11-15T13:02:24;6.65;;;1.50;;
22786;SDS011;63134;52.020;4.714;2022-11-15T13:08:02;9.20;;;2.03;;
22786;SDS011;63134;52.020;4.714;2022-11-15T13:10:48;11.23;;;1.90;;
22786;SDS011;63134;52.020;4.714;2022-11-15T13:13:42;6.35;;;1.92;;
22786;SDS011;63134;52.020;4.714;2022-11-15T13:16:30;8.75;;;1.38;;
22786;SDS011;63134;52.020;4.714;2022-11-15T13:19:24;6.70;;;1.83;;
22786;SDS011;63134;52.020;4.714;2022-11-15T13:22:10;6.55;;;1.60;;
22786;SDS011;63134;52.020;4.714;2022-11-15T13:28:27;8.80;;;1.77;;
22786;SDS011;63134;52.020;4.714;2022-11-15T13:31:30;8.13;;;2.00;;
22786;SDS011;63134;52.020;4.714;2022-11-15T13:34:26;6.13;;;1.52;;
22786;SDS011;63134;52.020;4.714;2022-11-15T13:37:35;6.63;;;1.67;;
22786;SDS011;63134;52.020;4.714;2022-11-15T13:40:22;10.90;;;2.05;;
22786;SDS011;63134;52.020;4.714;2022-11-15T13:49:07;10.25;;;1.60;;
22786;SDS011;63134;52.020;4.714;2022-11-15T13:51:56;11.18;;;1.90;;
22786;SDS011;63134;52.020;4.714;2022-11-15T13:54:43;6.85;;;1.70;;
22786;SDS011;63134;52.020;4.714;2022-11-15T13:57:37;12.35;;;1.90;;
22786;SDS011;63134;52.020;4.714;2022-11-15T14:00:38;5.57;;;1.58;;
22786;SDS011;63134;52.020;4.714;2022-11-15T14:03:27;12.65;;;2.00;;
22786;SDS011;63134;52.020;4.714;2022-11-15T14:06:18;6.25;;;1.50;;
22786;SDS011;63134;52.020;4.714;2022-11-15T14:11:55;7.15;;;1.80;;
22786;SDS011;63134;52.020;4.714;2022-11-15T14:14:44;5.28;;;1.67;;
22786;SDS011;63134;52.020;4.714;2022-11-15T14:20:27;6.28;;;1.95;;
22786;SDS011;63134;52.020;4.714;2022-11-15T14:23:26;7.50;;;2.15;;
22786;SDS011;63134;52.020;4.714;2022-11-15T14:26:29;8.95;;;1.67;;
22786;SDS011;63134;52.020;4.714;2022-11-15T14:29:24;10.70;;;2.28;;
22786;SDS011;63134;52.020;4.714;2022-11-15T14:32:17;9.45;;;1.77;;
22786;SDS011;63134;52.020;4.714;2022-11-15T14:35:08;12.65;;;1.85;;
22786;SDS011;63134;52.020;4.714;2022-11-15T14:37:58;10.68;;;2.47;;
22786;SDS011;63134;52.020;4.714;2022-11-15T14:40:48;5.95;;;1.80;;
22786;SDS011;63134;52.020;4.714;2022-11-15T14:43:38;4.07;;;1.73;;
22786;SDS011;63134;52.020;4.714;2022-11-15T14:46:24;7.85;;;2.00;;
22786;SDS011;63134;52.020;4.714;2022-11-15T14:49:09;5.22;;;1.90;;
22786;SDS011;63134;52.020;4.714;2022-11-15T14:51:55;6.00;;;1.45;;
22786;SDS011;63134;52.020;4.714;2022-11-15T14:54:40;5.57;;;1.90;;
22786;SDS011;63134;52.020;4.714;2022-11-15T14:57:29;9.45;;;1.73;;
22786;SDS011;63134;52.020;4.714;2022-11-15T15:00:15;7.95;;;2.05;;
22786;SDS011;63134;52.020;4.714;2022-11-15T15:03:04;8.13;;;1.88;;
22786;SDS011;63134;52.020;4.714;2022-11-15T15:05:51;6.80;;;1.70;;
22786;SDS011;63134;52.020;4.714;2022-11-15T15:08:36;5.32;;;1.67;;
22786;SDS011;63134;52.020;4.714;2022-11-15T15:11:28;7.38;;;2.05;;
22786;SDS011;63134;52.020;4.714;2022-11-15T15:14:15;5.57;;;1.60;;
22786;SDS011;63134;52.020;4.714;2022-11-15T15:17:03;4.75;;;1.65;;
22786;SDS011;63134;52.020;4.714;2022-11-15T15:19:49;11.48;;;2.08;;
22786;SDS011;63134;52.020;4.714;2022-11-15T15:22:34;5.07;;;1.45;;
22786;SDS011;63134;52.020;4.714;2022-11-15T15:25:21;4.97;;;1.80;;
22786;SDS011;63134;52.020;4.714;2022-11-15T15:28:07;8.95;;;2.40;;
22786;SDS011;63134;52.020;4.714;2022-11-15T15:30:52;6.68;;;1.98;;
22786;SDS011;63134;52.020;4.714;2022-11-15T15:33:38;7.00;;;2.63;;
22786;SDS011;63134;52.020;4.714;2022-11-15T15:36:23;6.45;;;2.08;;
22786;SDS011;63134;52.020;4.714;2022-11-15T15:39:09;7.00;;;2.00;;
22786;SDS011;63134;52.020;4.714;2022-11-15T15:41:56;5.95;;;2.17;;
22786;SDS011;63134;52.020;4.714;2022-11-15T15:44:41;7.72;;;2.22;;
22786;SDS011;63134;52.020;4.714;2022-11-15T15:47:27;8.73;;;2.67;;
22786;SDS011;63134;52.020;4.714;2022-11-15T15:53:08;6.03;;;2.15;;
22786;SDS011;63134;52.020;4.714;2022-11-15T15:55:55;8.27;;;2.15;;
22786;SDS011;63134;52.020;4.714;2022-11-15T15:58:40;9.13;;;2.17;;
22786;SDS011;63134;52.020;4.714;2022-11-15T16:01:26;5.88;;;1.98;;
22786;SDS011;63134;52.020;4.714;2022-11-15T16:04:12;7.13;;;1.73;;
22786;SDS011;63134;52.020;4.714;2022-11-15T16:06:58;7.30;;;2.13;;
22786;SDS011;63134;52.020;4.714;2022-11-15T16:09:47;8.85;;;2.05;;
22786;SDS011;63134;52.020;4.714;2022-11-15T16:12:44;6.43;;;2.40;;
22786;SDS011;63134;52.020;4.714;2022-11-15T16:15:30;9.15;;;2.90;;
22786;SDS011;63134;52.020;4.714;2022-11-15T16:18:16;6.80;;;2.50;;
22786;SDS011;63134;52.020;4.714;2022-11-15T16:21:02;8.80;;;2.50;;
22786;SDS011;63134;52.020;4.714;2022-11-15T16:23:47;6.30;;;2.85;;
22786;SDS011;63134;52.020;4.714;2022-11-15T16:26:33;8.45;;;2.33;;
22786;SDS011;63134;52.020;4.714;2022-11-15T16:29:20;5.25;;;2.17;;
22786;SDS011;63134;52.020;4.714;2022-11-15T16:32:08;6.82;;;2.10;;
22786;SDS011;63134;52.020;4.714;2022-11-15T16:34:54;7.70;;;2.30;;
22786;SDS011;63134;52.020;4.714;2022-11-15T16:37:40;5.20;;;2.10;;
22786;SDS011;63134;52.020;4.714;2022-11-15T16:40:28;6.90;;;2.67;;
22786;SDS011;63134;52.020;4.714;2022-11-15T16:43:15;8.52;;;2.58;;
22786;SDS011;63134;52.020;4.714;2022-11-15T16:46:06;7.22;;;2.50;;
22786;SDS011;63134;52.020;4.714;2022-11-15T16:48:59;8.00;;;2.47;;
22786;SDS011;63134;52.020;4.714;2022-11-15T16:51:46;5.78;;;2.45;;
22786;SDS011;63134;52.020;4.714;2022-11-15T16:54:32;4.45;;;2.50;;
22786;SDS011;63134;52.020;4.714;2022-11-15T16:57:18;6.82;;;2.70;;
22786;SDS011;63134;52.020;4.714;2022-11-15T17:00:03;6.53;;;2.97;;
22786;SDS011;63134;52.020;4.714;2022-11-15T17:02:50;7.45;;;3.13;;
22786;SDS011;63134;52.020;4.714;2022-11-15T17:05:36;9.75;;;3.00;;
22786;SDS011;63134;52.020;4.714;2022-11-15T17:08:21;7.85;;;3.60;;
22786;SDS011;63134;52.020;4.714;2022-11-15T17:11:16;9.18;;;2.95;;
22786;SDS011;63134;52.020;4.714;2022-11-15T17:14:03;7.60;;;2.95;;
22786;SDS011;63134;52.020;4.714;2022-11-15T17:16:48;8.77;;;3.70;;
22786;SDS011;63134;52.020;4.714;2022-11-15T17:19:34;11.00;;;3.75;;
22786;SDS011;63134;52.020;4.714;2022-11-15T17:22:19;7.30;;;3.22;;
22786;SDS011;63134;52.020;4.714;2022-11-15T17:25:05;5.65;;;3.28;;
22786;SDS011;63134;52.020;4.714;2022-11-15T17:27:50;11.60;;;3.55;;
22786;SDS011;63134;52.020;4.714;2022-11-15T17:30:39;14.15;;;4.22;;
22786;SDS011;63134;52.020;4.714;2022-11-15T17:33:27;7.88;;;3.80;;
22786;SDS011;63134;52.020;4.714;2022-11-15T17:36:13;11.30;;;3.95;;
22786;SDS011;63134;52.020;4.714;2022-11-15T17:38:59;6.15;;;4.13;;
22786;SDS011;63134;52.020;4.714;2022-11-15T17:41:44;8.82;;;4.15;;
22786;SDS011;63134;52.020;4.714;2022-11-15T17:44:30;5.82;;;3.97;;
22786;SDS011;63134;52.020;4.714;2022-11-15T17:47:19;10.15;;;4.32;;
22786;SDS011;63134;52.020;4.714;2022-11-15T17:50:08;9.13;;;4.65;;
22786;SDS011;63134;52.020;4.714;2022-11-15T17:52:54;9.73;;;4.15;;
22786;SDS011;63134;52.020;4.714;2022-11-15T17:55:41;7.57;;;4.40;;
22786;SDS011;63134;52.020;4.714;2022-11-15T17:58:27;9.90;;;4.38;;
22786;SDS011;63134;52.020;4.714;2022-11-15T18:01:20;7.85;;;4.35;;
22786;SDS011;63134;52.020;4.714;2022-11-15T18:04:09;8.82;;;4.20;;
22786;SDS011;63134;52.020;4.714;2022-11-15T18:06:55;7.05;;;4.40;;
22786;SDS011;63134;52.020;4.714;2022-11-15T18:09:41;5.50;;;4.00;;
22786;SDS011;63134;52.020;4.714;2022-11-15T18:12:28;6.10;;;4.30;;
22786;SDS011;63134;52.020;4.714;2022-11-15T18:15:13;5.80;;;4.80;;
22786;SDS011;63134;52.020;4.714;2022-11-15T18:17:59;7.30;;;3.85;;
22786;SDS011;63134;52.020;4.714;2022-11-15T18:20:47;6.80;;;4.90;;
22786;SDS011;63134;52.020;4.714;2022-11-15T18:23:33;10.95;;;5.00;;
22786;SDS011;63134;52.020;4.714;2022-11-15T18:26:20;8.38;;;4.30;;
22786;SDS011;63134;52.020;4.714;2022-11-15T18:29:10;12.43;;;5.28;;
22786;SDS011;63134;52.020;4.714;2022-11-15T18:31:56;9.20;;;5.80;;
22786;SDS011;63134;52.020;4.714;2022-11-15T18:34:42;8.32;;;5.35;;
22786;SDS011;63134;52.020;4.714;2022-11-15T18:37:31;8.55;;;5.45;;
22786;SDS011;63134;52.020;4.714;2022-11-15T18:40:17;8.15;;;5.57;;
22786;SDS011;63134;52.020;4.714;2022-11-15T18:43:02;11.10;;;5.63;;
22786;SDS011;63134;52.020;4.714;2022-11-15T18:45:48;7.32;;;6.05;;
22786;SDS011;63134;52.020;4.714;2022-11-15T18:48:35;11.50;;;6.60;;
22786;SDS011;63134;52.020;4.714;2022-11-15T18:51:22;10.20;;;6.25;;
22786;SDS011;63134;52.020;4.714;2022-11-15T18:54:10;8.98;;;6.28;;
22786;SDS011;63134;52.020;4.714;2022-11-15T18:56:57;9.85;;;6.53;;
22786;SDS011;63134;52.020;4.714;2022-11-15T18:59:45;11.77;;;6.63;;
22786;SDS011;63134;52.020;4.714;2022-11-15T19:02:31;13.00;;;6.82;;
22786;SDS011;63134;52.020;4.714;2022-11-15T19:05:16;8.88;;;7.43;;
22786;SDS011;63134;52.020;4.714;2022-11-15T19:08:05;11.45;;;6.95;;
22786;SDS011;63134;52.020;4.714;2022-11-15T19:10:50;9.75;;;7.85;;
22786;SDS011;63134;52.020;4.714;2022-11-15T19:13:36;13.88;;;8.40;;
22786;SDS011;63134;52.020;4.714;2022-11-15T19:16:22;10.98;;;7.78;;